createdAt,value
2018-06-14T00:01:44.296Z,2.63
2018-06-14T00:04:12.986Z,2.20
2018-06-14T00:06:41.977Z,2.57
2018-06-14T00:09:11.404Z,2.53
2018-06-14T00:11:40.474Z,1.90
2018-06-14T00:14:09.148Z,2.53
2018-06-14T00:16:38.058Z,2.53
2018-06-14T00:19:06.829Z,2.27
2018-06-14T00:21:35.729Z,2.23
2018-06-14T00:24:04.452Z,2.40
2018-06-14T00:26:33.414Z,2.33
2018-06-14T00:29:02.172Z,2.13
2018-06-14T00:31:30.907Z,2.70
2018-06-14T00:33:59.989Z,2.40
2018-06-14T00:36:29.017Z,2.60
2018-06-14T00:38:57.972Z,2.50
2018-06-14T00:41:26.661Z,2.60
2018-06-14T00:43:55.383Z,2.43
2018-06-14T00:46:24.157Z,2.63
2018-06-14T00:48:53.089Z,2.40
2018-06-14T00:51:21.760Z,2.50
2018-06-14T00:53:50.729Z,2.60
2018-06-14T00:56:19.606Z,2.40
2018-06-14T00:58:48.517Z,2.30
2018-06-14T01:01:17.530Z,2.60
2018-06-14T01:03:46.574Z,2.30
2018-06-14T01:06:15.712Z,2.53
2018-06-14T01:08:44.432Z,2.47
2018-06-14T01:11:13.356Z,2.30
2018-06-14T01:13:42.347Z,2.33
2018-06-14T01:16:11.085Z,2.30
2018-06-14T01:18:39.762Z,2.50
2018-06-14T01:21:08.585Z,2.60
2018-06-14T01:23:37.640Z,2.67
2018-06-14T01:26:06.391Z,2.17
2018-06-14T01:28:35.283Z,2.30
2018-06-14T01:31:04.173Z,2.20
2018-06-14T01:33:33.114Z,2.33
2018-06-14T01:36:01.837Z,2.60
2018-06-14T01:38:30.473Z,2.27
2018-06-14T01:40:59.161Z,2.17
2018-06-14T01:43:27.841Z,2.70
2018-06-14T01:45:56.503Z,2.67
2018-06-14T01:48:25.117Z,2.67
2018-06-14T01:50:53.912Z,2.43
2018-06-14T01:53:22.862Z,2.70
2018-06-14T01:55:51.681Z,2.67
2018-06-14T01:58:20.541Z,2.37
2018-06-14T02:00:49.639Z,2.43
2018-06-14T02:03:18.688Z,2.60
2018-06-14T02:05:47.449Z,2.60
2018-06-14T02:08:16.311Z,2.70
2018-06-14T02:10:45.223Z,2.20
2018-06-14T02:13:14.093Z,2.43
2018-06-14T02:15:42.916Z,2.57
2018-06-14T02:18:11.876Z,2.57
2018-06-14T02:20:40.751Z,2.63
2018-06-14T02:23:09.659Z,2.60
2018-06-14T02:25:38.460Z,2.47
2018-06-14T02:28:07.123Z,2.93
2018-06-14T02:30:36.128Z,2.40
2018-06-14T02:33:05.029Z,2.67
2018-06-14T02:35:33.985Z,2.70
2018-06-14T02:38:03.035Z,2.50
2018-06-14T02:40:31.962Z,2.63
2018-06-14T02:43:00.669Z,2.60
2018-06-14T02:45:29.576Z,2.40
2018-06-14T02:47:58.577Z,2.70
2018-06-14T02:50:27.361Z,2.40
2018-06-14T02:52:56.282Z,3.10
2018-06-14T02:55:25.244Z,2.27
2018-06-14T02:57:54.135Z,2.60
2018-06-14T03:00:23.061Z,2.70
2018-06-14T03:02:51.685Z,2.73
2018-06-14T03:05:20.398Z,2.63
2018-06-14T03:07:49.030Z,2.30
2018-06-14T03:10:17.849Z,2.33
2018-06-14T03:12:46.580Z,2.40
2018-06-14T03:15:15.381Z,2.20
2018-06-14T03:17:44.111Z,2.50
2018-06-14T03:20:12.875Z,2.40
2018-06-14T03:22:41.715Z,2.27
2018-06-14T03:25:10.396Z,2.60
2018-06-14T03:27:39.111Z,2.47
2018-06-14T03:30:07.899Z,2.30
2018-06-14T03:32:36.735Z,2.60
2018-06-14T03:35:05.455Z,2.50
2018-06-14T03:37:34.177Z,2.07
2018-06-14T03:40:02.930Z,2.67
2018-06-14T03:42:31.576Z,2.23
2018-06-14T03:45:00.369Z,2.60
2018-06-14T03:47:29.072Z,2.57
2018-06-14T03:49:57.776Z,2.23
2018-06-14T03:52:26.415Z,2.70
2018-06-14T03:54:54.699Z,2.40
2018-06-14T03:57:23.473Z,2.63
2018-06-14T03:59:52.189Z,2.67
2018-06-14T04:02:20.957Z,2.50
2018-06-14T04:04:49.690Z,2.60
2018-06-14T04:07:18.365Z,2.43
2018-06-14T04:09:47.048Z,2.47
2018-06-14T04:12:15.799Z,2.10
2018-06-14T04:14:44.555Z,2.50
2018-06-14T04:17:13.243Z,2.30
2018-06-14T04:19:41.964Z,2.60
2018-06-14T04:22:10.730Z,2.67
2018-06-14T04:24:39.448Z,2.40
2018-06-14T04:27:08.277Z,2.37
2018-06-14T04:29:36.960Z,2.67
2018-06-14T04:32:05.649Z,2.40
2018-06-14T04:34:34.384Z,2.40
2018-06-14T04:37:03.074Z,2.50
2018-06-14T04:39:31.901Z,2.57
2018-06-14T04:42:00.737Z,2.43
2018-06-14T04:44:29.395Z,2.30
2018-06-14T04:46:58.154Z,2.37
2018-06-14T04:49:26.947Z,2.73
2018-06-14T04:51:55.626Z,2.70
2018-06-14T04:54:24.443Z,2.90
2018-06-14T04:56:53.165Z,3.10
2018-06-14T04:59:22.024Z,2.50
2018-06-14T05:01:57.290Z,2.90
2018-06-14T05:04:26.067Z,3.20
2018-06-14T05:06:54.731Z,2.57
2018-06-14T05:09:23.490Z,3.60
2018-06-14T05:11:52.314Z,3.10
2018-06-14T05:14:21.093Z,3.07
2018-06-14T05:16:49.867Z,3.57
2018-06-14T05:19:18.753Z,3.10
2018-06-14T05:21:47.621Z,3.30
2018-06-14T05:24:16.370Z,2.97
2018-06-14T05:26:45.256Z,3.33
2018-06-14T05:29:13.933Z,3.03
2018-06-14T05:31:42.629Z,3.40
2018-06-14T05:34:11.457Z,3.30
2018-06-14T05:36:40.148Z,4.10
2018-06-14T05:39:10.986Z,3.70
2018-06-14T05:41:40.092Z,3.77
2018-06-14T05:44:08.765Z,4.00
2018-06-14T05:46:37.093Z,3.73
2018-06-14T05:49:06.064Z,3.30
2018-06-14T05:51:34.760Z,3.23
2018-06-14T05:54:03.493Z,3.23
2018-06-14T05:56:32.406Z,3.83
2018-06-14T05:59:01.163Z,3.87
2018-06-14T06:01:30.082Z,3.90
2018-06-14T06:03:58.850Z,3.73
2018-06-14T06:06:27.655Z,3.20
2018-06-14T06:08:56.544Z,3.60
2018-06-14T06:11:25.216Z,3.73
2018-06-14T06:13:53.965Z,3.63
2018-06-14T06:16:22.733Z,3.97
2018-06-14T06:18:51.390Z,3.43
2018-06-14T06:21:20.144Z,3.77
2018-06-14T06:23:48.829Z,4.20
2018-06-14T06:26:17.705Z,3.53
2018-06-14T06:28:46.450Z,3.70
2018-06-14T06:31:15.111Z,3.93
2018-06-14T06:36:22.853Z,4.03
2018-06-14T06:38:51.530Z,4.03
2018-06-14T06:41:20.240Z,4.70
2018-06-14T06:43:48.907Z,4.93
2018-06-14T06:46:17.681Z,4.80
2018-06-14T06:48:46.732Z,4.50
2018-06-14T06:51:15.513Z,4.30
2018-06-14T06:53:44.273Z,4.53
2018-06-14T06:56:12.992Z,4.97
2018-06-14T06:58:41.835Z,4.30
2018-06-14T07:01:10.421Z,4.73
2018-06-14T07:03:39.070Z,4.23
2018-06-14T07:06:07.988Z,4.30
2018-06-14T07:08:36.597Z,4.70
2018-06-14T07:11:05.264Z,3.80
2018-06-14T07:13:33.976Z,4.87
2018-06-14T07:16:02.703Z,4.10
2018-06-14T07:18:31.606Z,4.03
2018-06-14T07:21:00.417Z,3.97
2018-06-14T07:23:29.612Z,4.00
2018-06-14T07:25:58.626Z,3.80
2018-06-14T07:28:27.676Z,4.43
2018-06-14T07:30:56.501Z,4.47
2018-06-14T07:33:25.456Z,4.60
2018-06-14T07:35:54.110Z,4.53
2018-06-14T07:38:22.841Z,4.30
2018-06-14T07:40:51.520Z,4.03
2018-06-14T07:43:20.138Z,4.63
2018-06-14T07:45:49.092Z,4.50
2018-06-14T07:48:17.881Z,5.87
2018-06-14T07:50:46.824Z,4.50
2018-06-14T07:53:15.767Z,4.60
2018-06-14T07:55:44.476Z,5.10
2018-06-14T07:58:13.376Z,4.70
2018-06-14T08:00:42.115Z,4.73
2018-06-14T08:03:11.027Z,4.63
2018-06-14T08:05:39.716Z,4.33
2018-06-14T08:08:08.348Z,4.90
2018-06-14T08:10:37.229Z,5.20
2018-06-14T08:13:06.114Z,4.23
2018-06-14T08:15:35.581Z,4.12
2018-06-14T08:18:04.462Z,4.63
2018-06-14T08:20:33.708Z,3.80
2018-06-14T08:23:02.450Z,4.10
2018-06-14T08:25:31.153Z,4.47
2018-06-14T08:27:59.965Z,4.77
2018-06-14T08:30:28.764Z,5.20
2018-06-14T08:32:57.566Z,4.43
2018-06-14T08:35:27.226Z,4.20
2018-06-14T08:37:55.946Z,4.53
2018-06-14T08:40:25.113Z,5.00
2018-06-14T08:42:53.879Z,4.73
2018-06-14T08:45:22.663Z,4.63
2018-06-14T08:47:51.416Z,4.23
2018-06-14T08:50:20.157Z,4.80
2018-06-14T08:52:48.945Z,5.00
2018-06-14T08:55:17.578Z,4.50
2018-06-14T08:57:46.288Z,4.90
2018-06-14T09:00:14.994Z,4.67
2018-06-14T09:02:43.748Z,4.63
2018-06-14T09:05:12.526Z,4.60
2018-06-14T09:07:41.234Z,4.20
2018-06-14T09:10:10.027Z,4.60
2018-06-14T09:12:38.707Z,4.23
2018-06-14T09:15:07.377Z,4.37
2018-06-14T09:17:36.103Z,3.80
2018-06-14T09:20:04.838Z,3.50
2018-06-14T09:22:33.565Z,4.10
2018-06-14T09:25:02.362Z,3.97
2018-06-14T09:27:31.115Z,3.80
2018-06-14T09:29:59.988Z,3.33
2018-06-14T09:32:28.882Z,3.93
2018-06-14T09:34:57.598Z,3.30
2018-06-14T09:37:26.539Z,4.13
2018-06-14T09:39:55.424Z,3.90
2018-06-14T09:42:24.423Z,4.30
2018-06-14T09:44:53.344Z,4.70
2018-06-14T09:47:22.117Z,4.23
2018-06-14T09:49:50.831Z,4.50
2018-06-14T09:52:19.727Z,4.93
2018-06-14T09:54:48.501Z,5.10
2018-06-14T09:57:17.274Z,5.03
2018-06-14T09:59:45.977Z,4.37
2018-06-14T10:02:14.747Z,5.30
2018-06-14T10:04:43.451Z,4.80
2018-06-14T10:07:12.207Z,4.50
2018-06-14T10:09:40.941Z,4.30
2018-06-14T10:12:09.292Z,4.43
2018-06-14T10:14:37.931Z,3.80
2018-06-14T10:17:06.639Z,4.77
2018-06-14T10:19:35.386Z,4.80
2018-06-14T10:22:04.171Z,4.40
2018-06-14T10:24:33.011Z,4.57
2018-06-14T10:27:01.900Z,4.47
2018-06-14T10:29:30.696Z,5.00
2018-06-14T10:31:59.449Z,4.50
2018-06-14T10:34:28.256Z,4.90
2018-06-14T10:36:56.938Z,4.87
2018-06-14T10:39:25.762Z,4.90
2018-06-14T10:41:54.635Z,4.77
2018-06-14T10:44:23.440Z,5.07
2018-06-14T10:46:52.529Z,4.97
2018-06-14T10:49:21.227Z,5.13
2018-06-14T10:51:50.101Z,5.10
2018-06-14T10:54:18.891Z,5.77
2018-06-14T10:56:47.569Z,5.63
2018-06-14T10:59:16.331Z,6.50
2018-06-14T11:01:45.021Z,6.07
2018-06-14T11:04:14.038Z,7.03
2018-06-14T11:06:42.800Z,7.30
2018-06-14T11:09:12.168Z,7.87
2018-06-14T11:11:41.252Z,7.80
2018-06-14T11:14:09.957Z,7.53
2018-06-14T11:16:38.828Z,7.00
2018-06-14T11:19:07.722Z,7.13
2018-06-14T11:21:36.509Z,7.80
2018-06-14T11:24:05.197Z,7.87
2018-06-14T11:26:34.079Z,8.17
2018-06-14T11:29:02.773Z,8.63
2018-06-14T11:31:31.638Z,9.83
2018-06-14T11:34:00.591Z,9.43
2018-06-14T11:36:29.526Z,10.20
2018-06-14T11:38:58.421Z,10.90
2018-06-14T11:41:27.151Z,10.13
2018-06-14T11:43:55.994Z,10.20
2018-06-14T11:46:24.663Z,9.70
2018-06-14T11:48:53.669Z,9.67
2018-06-14T11:51:22.474Z,8.97
2018-06-14T11:53:51.205Z,10.03
2018-06-14T11:56:19.905Z,10.23
2018-06-14T11:58:48.676Z,8.70
2018-06-14T12:01:17.464Z,9.63
2018-06-14T12:03:46.309Z,9.67
2018-06-14T12:06:15.013Z,9.33
2018-06-14T12:08:43.878Z,9.10
2018-06-14T12:11:12.563Z,9.57
2018-06-14T12:13:41.456Z,8.07
2018-06-14T12:16:10.267Z,8.43
2018-06-14T12:18:39.316Z,8.80
2018-06-14T12:21:08.030Z,8.97
2018-06-14T12:23:37.154Z,8.50
2018-06-14T12:26:06.078Z,8.30
2018-06-14T12:28:34.803Z,8.57
2018-06-14T12:31:03.499Z,8.07
2018-06-14T12:33:32.292Z,7.30
2018-06-14T12:36:01.014Z,7.93
2018-06-14T12:38:29.753Z,8.03
2018-06-14T12:40:58.470Z,8.67
2018-06-14T12:43:27.511Z,8.53
2018-06-14T12:45:56.239Z,7.87
2018-06-14T12:48:24.957Z,7.93
2018-06-14T12:50:53.800Z,8.00
2018-06-14T12:53:22.683Z,8.47
2018-06-14T12:55:51.420Z,7.87
2018-06-14T12:58:20.164Z,8.57
2018-06-14T13:00:48.955Z,7.63
2018-06-14T13:03:17.754Z,7.20
2018-06-14T13:05:46.665Z,8.10
2018-06-14T13:08:15.652Z,7.70
2018-06-14T13:10:44.641Z,7.80
2018-06-14T13:13:13.516Z,8.27
2018-06-14T13:15:42.470Z,9.00
2018-06-14T13:18:11.503Z,7.90
2018-06-14T13:20:40.291Z,8.73
2018-06-14T13:23:09.312Z,7.97
2018-06-14T13:25:38.345Z,7.60
2018-06-14T13:28:07.202Z,8.80
2018-06-14T13:30:36.002Z,8.23
2018-06-14T13:33:04.738Z,7.67
2018-06-14T13:35:33.477Z,7.50
2018-06-14T13:38:02.345Z,7.00
2018-06-14T13:40:31.137Z,7.30
2018-06-14T13:42:59.906Z,7.53
2018-06-14T13:45:28.584Z,7.27
2018-06-14T13:47:57.419Z,7.63
2018-06-14T13:50:26.108Z,6.77
2018-06-14T13:52:54.828Z,6.53
2018-06-14T13:55:23.528Z,6.80
2018-06-14T13:57:52.278Z,6.47
2018-06-14T14:00:21.046Z,6.80
2018-06-14T14:02:49.933Z,6.30
2018-06-14T14:05:18.593Z,6.40
2018-06-14T14:07:47.277Z,5.80
2018-06-14T14:10:16.206Z,6.27
2018-06-14T14:12:44.987Z,7.00
2018-06-14T14:15:13.701Z,6.30
2018-06-14T14:17:42.387Z,6.40
2018-06-14T14:20:11.277Z,6.20
2018-06-14T14:22:39.709Z,6.27
2018-06-14T14:25:08.366Z,6.30
2018-06-14T14:27:37.168Z,5.73
2018-06-14T14:30:05.917Z,6.10
2018-06-14T14:32:34.736Z,5.47
2018-06-14T14:35:03.525Z,6.57
2018-06-14T14:37:32.258Z,6.30
2018-06-14T14:40:01.060Z,5.87
2018-06-14T14:42:29.702Z,5.90
2018-06-14T14:44:58.955Z,5.00
2018-06-14T14:47:27.612Z,5.60
2018-06-14T14:49:56.425Z,5.00
2018-06-14T14:52:24.838Z,5.27
2018-06-14T14:54:53.516Z,4.77
2018-06-14T14:57:22.509Z,5.10
2018-06-14T14:59:51.302Z,4.40
2018-06-14T15:02:19.976Z,4.93
2018-06-14T15:04:49.059Z,5.13
2018-06-14T15:07:17.876Z,4.80
2018-06-14T15:09:46.645Z,4.60
2018-06-14T15:12:15.334Z,5.03
2018-06-14T15:14:44.094Z,4.73
2018-06-14T15:17:12.932Z,4.70
2018-06-14T15:19:41.788Z,4.67
2018-06-14T15:22:10.501Z,4.27
2018-06-14T15:24:39.375Z,4.70
2018-06-14T15:27:08.064Z,4.53
2018-06-14T15:29:37.063Z,4.63
2018-06-14T15:32:05.917Z,4.17
2018-06-14T15:34:34.860Z,4.30
2018-06-14T15:37:03.720Z,4.63
2018-06-14T15:39:32.416Z,4.93
2018-06-14T15:42:01.039Z,5.20
2018-06-14T15:44:29.756Z,4.70
2018-06-14T15:46:58.514Z,4.57
2018-06-14T15:49:27.311Z,4.83
2018-06-14T15:51:56.306Z,4.53
2018-06-14T15:54:24.972Z,4.23
2018-06-14T15:56:53.750Z,4.70
2018-06-14T15:59:22.576Z,4.37
2018-06-14T16:01:51.263Z,4.33
2018-06-14T16:04:20.238Z,5.00
2018-06-14T16:06:48.959Z,4.83
2018-06-14T16:09:17.704Z,4.57
2018-06-14T16:11:46.516Z,5.13
2018-06-14T16:14:15.241Z,4.57
2018-06-14T16:16:44.097Z,9.37
2018-06-14T16:19:13.466Z,5.97
2018-06-14T16:21:42.113Z,7.00
2018-06-14T16:24:10.878Z,5.57
2018-06-14T16:26:39.525Z,7.97
2018-06-14T16:29:08.363Z,4.90
2018-06-14T16:31:37.054Z,5.20
2018-06-14T16:34:06.574Z,5.00
2018-06-14T16:36:35.414Z,4.30
2018-06-14T16:39:06.273Z,4.20
2018-06-14T16:41:35.086Z,4.00
2018-06-14T16:44:04.131Z,4.63
2018-06-14T16:46:33.403Z,3.33
2018-06-14T16:49:02.340Z,4.00
2018-06-14T16:51:31.167Z,7.47
2018-06-14T16:53:59.855Z,7.00
2018-06-14T16:56:28.806Z,7.20
2018-06-14T16:58:57.596Z,4.87
2018-06-14T17:01:26.361Z,16.10
2018-06-14T17:03:55.613Z,5.87
2018-06-14T17:06:24.512Z,4.07
2018-06-14T17:08:53.290Z,7.23
2018-06-14T17:11:22.299Z,5.80
2018-06-14T17:13:51.160Z,6.20
2018-06-14T17:16:19.861Z,3.97
2018-06-14T17:18:48.571Z,3.93
2018-06-14T17:21:17.324Z,3.57
2018-06-14T17:23:46.137Z,3.80
2018-06-14T17:26:14.927Z,3.70
2018-06-14T17:28:43.781Z,3.30
2018-06-14T17:31:12.514Z,3.40
2018-06-14T17:33:41.308Z,3.40
2018-06-14T17:36:10.105Z,3.63
2018-06-14T17:38:38.910Z,3.30
2018-06-14T17:41:07.658Z,3.20
2018-06-14T17:43:36.401Z,3.20
2018-06-14T17:46:05.632Z,3.40
2018-06-14T17:48:34.707Z,3.33
2018-06-14T17:51:04.036Z,3.80
2018-06-14T17:53:32.919Z,4.27
2018-06-14T17:56:01.743Z,3.33
2018-06-14T17:58:30.740Z,3.40
2018-06-14T18:00:59.547Z,3.30
2018-06-14T18:03:28.145Z,3.10
2018-06-14T18:05:57.249Z,3.40
2018-06-14T18:08:26.140Z,3.50
2018-06-14T18:10:55.057Z,3.47
2018-06-14T18:13:23.840Z,3.33
2018-06-14T18:15:52.668Z,3.40
2018-06-14T18:18:21.469Z,3.53
2018-06-14T18:20:50.239Z,3.27
2018-06-14T18:23:19.179Z,2.97
2018-06-14T18:25:47.968Z,3.20
2018-06-14T18:28:17.270Z,3.53
2018-06-14T18:30:46.297Z,3.10
2018-06-14T18:33:15.285Z,3.10
2018-06-14T18:35:44.369Z,3.10
2018-06-14T18:38:13.371Z,3.33
2018-06-14T18:40:42.237Z,3.20
2018-06-14T18:43:11.062Z,3.10
2018-06-14T18:45:39.944Z,3.37
2018-06-14T18:48:08.908Z,2.90
2018-06-14T18:50:37.907Z,3.30
2018-06-14T18:53:06.934Z,3.33
2018-06-14T18:55:35.995Z,3.30
2018-06-14T18:58:05.355Z,3.10
2018-06-14T19:00:34.493Z,3.07
2018-06-14T19:03:03.511Z,3.37
2018-06-14T19:05:32.476Z,3.33
2018-06-14T19:08:01.192Z,3.20
2018-06-14T19:10:30.058Z,3.13
2018-06-14T19:12:58.951Z,3.47
2018-06-14T19:15:27.945Z,3.60
2018-06-14T19:17:56.741Z,3.47
2018-06-14T19:20:25.412Z,3.60
2018-06-14T19:22:54.442Z,3.33
2018-06-14T19:25:25.550Z,3.13
2018-06-14T19:27:58.025Z,3.53
2018-06-14T19:30:29.278Z,3.20
2018-06-14T19:33:01.984Z,3.37
2018-06-14T19:35:32.753Z,3.77
2018-06-14T19:38:01.564Z,3.27
2018-06-14T19:40:30.704Z,3.60
2018-06-14T19:42:59.831Z,4.30
2018-06-14T19:45:29.263Z,4.03
2018-06-14T19:47:58.658Z,3.97
2018-06-14T19:50:27.574Z,4.27
2018-06-14T19:52:56.565Z,3.83
2018-06-14T19:55:25.301Z,4.10
2018-06-14T19:57:54.145Z,4.70
2018-06-14T20:00:23.464Z,4.80
2018-06-14T20:02:52.128Z,4.50
2018-06-14T20:05:21.333Z,4.50
2018-06-14T20:07:49.976Z,4.47
2018-06-14T20:10:19.011Z,4.90
2018-06-14T20:12:48.176Z,5.10
2018-06-14T20:15:16.855Z,5.20
2018-06-14T20:17:45.896Z,5.00
2018-06-14T20:20:15.015Z,4.83
2018-06-14T20:22:43.767Z,4.83
2018-06-14T20:25:12.586Z,5.20
2018-06-14T20:27:41.473Z,5.40
2018-06-14T20:30:10.179Z,6.33
2018-06-14T20:32:40.160Z,11.40
2018-06-14T20:35:09.050Z,9.53
2018-06-14T20:37:38.040Z,9.93
2018-06-14T20:40:07.697Z,11.27
2018-06-14T20:42:36.485Z,12.37
2018-06-14T20:45:05.260Z,13.57
2018-06-14T20:47:33.903Z,14.30
2018-06-14T20:50:02.806Z,14.40
2018-06-14T20:52:32.109Z,16.03
2018-06-14T20:55:00.782Z,14.17
2018-06-14T20:57:29.890Z,14.50
2018-06-14T20:59:58.691Z,15.30
2018-06-14T21:02:27.464Z,13.33
2018-06-14T21:04:56.297Z,13.67
2018-06-14T21:07:25.486Z,13.53
2018-06-14T21:09:54.390Z,12.87
2018-06-14T21:12:23.242Z,11.50
2018-06-14T21:14:58.652Z,10.47
2018-06-14T21:17:27.574Z,9.40
2018-06-14T21:19:56.523Z,10.20
2018-06-14T21:22:25.468Z,9.90
2018-06-14T21:24:54.090Z,9.50
2018-06-14T21:27:22.826Z,9.30
2018-06-14T21:29:51.722Z,8.77
2018-06-14T21:32:20.433Z,9.47
2018-06-14T21:34:49.297Z,9.87
2018-06-14T21:37:18.277Z,10.10
2018-06-14T21:39:46.987Z,9.93
2018-06-14T21:42:15.875Z,10.00
2018-06-14T21:44:44.515Z,9.57
2018-06-14T21:47:13.530Z,11.10
2018-06-14T21:49:42.440Z,11.00
2018-06-14T21:52:11.367Z,11.43
2018-06-14T21:54:40.032Z,11.53
2018-06-14T21:57:09.012Z,12.60
2018-06-14T21:59:37.784Z,11.70
2018-06-14T22:02:06.741Z,11.63
2018-06-14T22:04:35.600Z,11.43
2018-06-14T22:07:04.536Z,11.90
2018-06-14T22:09:33.290Z,11.63
2018-06-14T22:12:01.981Z,12.20
2018-06-14T22:14:30.877Z,12.17
2018-06-14T22:17:00.042Z,12.60
2018-06-14T22:19:28.744Z,12.07
2018-06-14T22:21:57.412Z,12.93
2018-06-14T22:24:26.211Z,12.87
2018-06-14T22:26:54.919Z,12.90
2018-06-14T22:29:23.780Z,13.40
2018-06-14T22:31:52.584Z,12.20
2018-06-14T22:34:32.654Z,13.17
2018-06-14T22:37:01.451Z,14.40
2018-06-14T22:39:30.097Z,13.73
2018-06-14T22:41:58.868Z,13.67
2018-06-14T22:44:27.803Z,14.13
2018-06-14T22:46:56.561Z,13.40
2018-06-14T22:49:25.350Z,13.90
2018-06-14T22:52:37.694Z,14.03
2018-06-14T22:55:06.695Z,13.90
2018-06-14T22:57:35.474Z,14.17
2018-06-14T23:00:04.538Z,14.23
2018-06-14T23:02:33.383Z,14.03
2018-06-14T23:05:01.925Z,14.67
2018-06-14T23:07:30.702Z,14.17
2018-06-14T23:10:20.890Z,14.70
2018-06-14T23:12:49.678Z,13.67
2018-06-14T23:15:18.751Z,14.60
2018-06-14T23:17:48.318Z,14.60
2018-06-14T23:20:18.280Z,14.70
2018-06-14T23:22:48.427Z,14.47
2018-06-14T23:25:18.026Z,14.67
2018-06-14T23:27:46.980Z,14.57
2018-06-14T23:30:15.883Z,13.97
2018-06-14T23:32:44.912Z,15.00
2018-06-14T23:35:13.899Z,13.73
2018-06-14T23:37:42.881Z,13.83
2018-06-14T23:40:11.720Z,15.37
2018-06-14T23:42:40.780Z,15.03
2018-06-14T23:45:09.465Z,14.73
2018-06-14T23:47:38.253Z,14.70
2018-06-14T23:50:07.000Z,14.57
2018-06-14T23:52:35.962Z,15.67
2018-06-14T23:55:04.822Z,15.50
2018-06-14T23:57:33.790Z,15.83
